This is the latest recevied weather packets stored in our database for station/object KQ4TV-2. If no packets are shown the sender has not sent any weather packets the latest 10 day(s).
| Time | Temp. | Humidity | Pressure | Rain* | Wind** | Luminosity | Snow |
|---|---|---|---|---|---|---|---|
| 1787911563 | 21.11° C | 96% | - | 0 mm | - | - | - |
| 1787897181 | 22.78° C | 91% | - | 0 mm | - | - | - |
| 1787889084 | 23.33° C | 87% | - | 0 mm | - | - | - |
| 1787888238 | 23.89° C | 85% | - | 0 mm | - | - | - |
| 1787875549 | 28.33° C | 64% | - | 0 mm | - | - | - |
| 1787875186 | 28.89° C | 63% | - | 0 mm | - | - | - |
| 1787874703 | 29.44° C | 62% | - | 0 mm | - | - | - |
| 1787870352 | 31.67° C | 54% | - | 0 mm | - | - | - |
| 1787868298 | 32.22° C | 56% | - | 0 mm | - | - | - |
| 1787867331 | 31.67° C | 58% | - | 0 mm | - | - | - |
| 1787866364 | 30.56° C | 60% | - | 0 mm | - | - | - |
| 1787865881 | 30.56° C | 60% | - | 0 mm | - | - | - |
| 1787865639 | 30.56° C | 61% | - | 0 mm | - | - | - |
| 1787865156 | 30.56° C | 59% | - | 0 mm | - | - | - |
| 1787864914 | 31.11° C | 59% | - | 0 mm | - | - | - |
| 1787864793 | 31.11° C | 59% | - | 0 mm | - | - | - |
| 1787863584 | 30.56° C | 58% | - | 0 mm | - | - | - |
| 1787862497 | 31.11° C | 57% | - | 0 mm | - | - | - |
| 1787862376 | 31.11° C | 57% | - | 0 mm | - | - | - |
| 1787862134 | 31.11° C | 56% | - | 0 mm | - | - | - |
| 1787861772 | 31.11° C | 56% | - | 0 mm | - | - | - |
| 1787860322 | 31.11° C | 55% | - | 0 mm | - | - | - |
| 1787859838 | 31.11° C | 57% | - | 0 mm | - | - | - |
| 1787858146 | 30.56° C | 58% | - | 0 mm | - | - | - |
| 1787857663 | 30.56° C | 59% | - | 0 mm | - | - | - |
* Rain since midnight (hover to see other rain measurements)
** Current wind speed in m/s (hover to see current wind gust speed)